Entebbe, Uganda
Current Conditions -  °F | °C
As of 5:55 PM on Friday 24 Oct 2014 (Local Time) from KQUD Reporting Station
Clear Clear  
Wind Chill: 79°   Ceiling: Unl
Heat Index: 81°   Visibility: 10mi
Dew Point: 65°   Wind: 2mph
Humidity: 62%   Direction: 240°WSW
Pressure: 30.08"   Gusts: NA
Location:  0.06°N, 32.46°E
Report Text: KQUD 241455Z AUTO 24002KT 10SM CLR 26/18 A3008 RMK AO2 SLP134 T02600183 55006
Loading
Personal Weather Stations






























Interactive Weather Map New forecast layout! Learn more

10-Day Weather Forecast

Advertisements
Track Severe Weather on mobile